x

Matinicus Rock, Me (mism1) Weather Station

10:00am - Mon 5th Dec 2016 All times are EST. -5 hours from GMT.

  • Wind
    5mph, 7mph gusts
  • 空気 Temp 36°f
  • Sea Pressure 1017.4mb
  • Matinicus Rock, Me
  • Matinicus Rock, Me

More Historic Weather Station data

Upgrade to MSW Pro to gain access to the past 30 days of data for over 8000 Wavebouys and Weather Stations around the globe.

Join Pro

Comparision Forecast

View Surf forecast
   
Mon 12/05 10:00am 5 7 mph 1017.4mb 36f
9:00am 5 6 mph 1018.3mb 35f
8:00am  -  1 mph 1018.8mb 34f
7:00am 2 3 mph 1019mb 33f
6:00am 2
mph
1019.4mb 32f
5:00am 3 6 mph 1019.7mb 32f
4:00am 5
mph
1019.3mb 31f
3:00am 5 6 mph 1019.6mb 31f
2:00am 9 10 mph 1020.5mb 31f
1:00am 14 16 mph 1020.1mb 31f
12:00am 9 10 mph 1020.7mb 31f
Sun 12/04 11:00pm 9 11 mph 1021.2mb 31f
10:00pm 14 15 mph 1021.4mb 32f
9:00pm 16 20 mph 1021.3mb 32f
8:00pm 22 25 mph 1020.9mb 33f
7:00pm 23 26 mph 1020.8mb 34f
6:00pm 20 23 mph 1020.9mb 35f
5:00pm 24 28 mph 1020.2mb 36f
4:00pm 22 25 mph 1019.4mb 37f
3:00pm 16 18 mph 1019.2mb 37f
2:00pm 16 18 mph 1018.7mb 35f
1:00pm 16 17 mph 1018.7mb 35f
12:00pm 16 18 mph 1018.9mb 34f
11:00am 21 25 mph 1018.9mb 33f
10:00am 22 28 mph 1019mb 33f
9:00am 23 25 mph 1018.9mb 34f
8:00am 26 29 mph 1018.2mb 33f
7:00am 26 31 mph 1017.9mb 34f
6:00am 24 26 mph 1017.2mb 35f
5:00am 25 29 mph 1016.7mb 35f
4:00am 22 26 mph 1016.4mb 35f
3:00am 24 26 mph 1016mb 35f
2:00am 26 31 mph 1015.5mb 36f
1:00am 28 31 mph 1015mb 35f
12:00am 29 33 mph 1014.5mb 36f
Sat 12/03 11:00pm 24 26 mph 1014.2mb 36f
10:00pm 28 30 mph 1013.7mb 36f
9:00pm 26 31 mph 1013.3mb 37f
8:00pm 28 31 mph 1013.1mb 37f
7:00pm 29 33 mph 1012.1mb 38f
6:00pm 30 32 mph 1011.5mb 38f
5:00pm 25 28 mph 1010.7mb 39f
4:00pm 29 33 mph 1009.5mb 40f
3:00pm 25 28 mph 1008.9mb 40f
2:00pm 25 28 mph 1008mb 40f
1:00pm 23 28 mph 1007.5mb 40f
12:00pm 24 29 mph 1007.1mb 39f
11:00am 30 33 mph 1006.7mb 38f
10:00am 30 32 mph 1006.3mb 39f
9:00am 26 31 mph 1005.7mb 38f
8:00am 30 36 mph 1005mb 39f
7:00am 30 34 mph 1004.3mb 41f
6:00am 29 34 mph 1003.7mb 41f
5:00am 32 36 mph 1003.2mb 40f
4:00am 31 34 mph 1002.9mb 41f
3:00am 28 31 mph 1002.8mb 41f
2:00am 25 30 mph 1003.1mb 41f
1:00am 26 29 mph 1002.6mb 40f
12:00am 29 30 mph 1002.2mb 42f
Fri 12/02 11:00pm 25 28 mph 1002.7mb 43f
10:00pm 24 28 mph 1002.4mb 46f
9:00pm 26 28 mph 1002.5mb 47f
8:00pm 23 25 mph 1002.9mb 47f
7:00pm 24 26 mph 1003.2mb 48f
6:00pm 22 24 mph 1003.3mb 48f
5:00pm 24 25 mph 1003.3mb 48f
4:00pm 18 20 mph 1003.5mb 48f
3:00pm 14 17 mph 1003.8mb 47f
2:00pm 16
mph
1003.7mb 47f
1:00pm 14 15 mph 1003.6mb 46f
12:00pm 11
mph
1003.8mb 46f
11:00am 15 16 mph 1004.4mb 45f
10:00am 20 21 mph 1004.9mb 45f
9:00am 21 22 mph 1004.8mb 46f
8:00am 24 26 mph 1004.6mb 45f
7:00am 23 25 mph 1004.1mb 45f
6:00am 25 28 mph 1003.7mb 45f
5:00am 28 30 mph 1002.7mb 45f
4:00am 28 31 mph 1002.2mb 46f
3:00am 29 32 mph 1001.8mb 46f
2:00am 28 31 mph 1001.5mb 46f
1:00am 29 32 mph 1000.4mb 46f
12:00am 29 31 mph 1000mb 47f
Thu 12/01 11:00pm 22 24 mph 999.9mb 47f
10:00pm 23 25 mph 998.9mb 48f
9:00pm 17 18 mph 998.8mb 46f
8:00pm 10 11 mph 998.5mb 44f
7:00pm 11 13 mph 998.5mb 43f
6:00pm 13 15 mph 998.1mb 42f
5:00pm 17 20 mph 997.7mb 42f